Time;durP1;ratioP1;P1;durP2;ratioP2;P2;SDS_P1;SDS_P2;PMS_P1;PMS_P2;Temp;Humidity;BMP_temperature;BMP_pressure;BME280_temperature;BME280_humidity;BME280_pressure;Samples;Min_cycle;Max_cycle;Signal;HPM_P1;HPM_P2
2023/01/30 00:00:10;;;;;;;21.95;12.75;;;0.70;79.30;;;;;;5030173;28;20044;-57
2023/01/30 00:02:36;;;;;;;25.40;13.80;;;0.70;79.40;;;;;;5031658;28;20033;-56
2023/01/30 00:05:01;;;;;;;23.92;14.07;;;0.70;79.40;;;;;;5033137;28;20459;-59
2023/01/30 00:07:27;;;;;;;24.92;14.20;;;0.70;79.50;;;;;;5030450;28;20406;-60
2023/01/30 00:09:52;;;;;;;25.40;14.35;;;0.70;79.50;;;;;;5030715;28;20082;-58
2023/01/30 00:12:18;;;;;;;25.63;14.15;;;0.80;79.60;;;;;;5021541;28;20060;-58
2023/01/30 00:14:43;;;;;;;26.05;13.90;;;0.60;79.50;;;;;;5020080;28;20025;-60
2023/01/30 00:17:09;;;;;;;25.55;13.52;;;0.60;79.50;;;;;;5026252;28;20038;-59
2023/01/30 00:19:35;;;;;;;26.42;14.23;;;0.60;79.50;;;;;;5022126;28;20038;-58
2023/01/30 00:22:00;;;;;;;24.38;14.18;;;0.60;79.50;;;;;;5023321;28;20453;-61
2023/01/30 00:24:26;;;;;;;25.83;14.32;;;0.60;79.50;;;;;;5021772;28;20783;-60
2023/01/30 00:26:51;;;;;;;26.30;14.40;;;0.60;79.50;;;;;;5021399;28;20037;-59
2023/01/30 00:29:17;;;;;;;27.80;14.73;;;0.60;79.50;;;;;;5023567;28;20041;-60
2023/01/30 00:31:42;;;;;;;29.52;15.00;;;0.60;79.50;;;;;;5022916;28;20443;-58
2023/01/30 00:34:08;;;;;;;28.00;15.23;;;0.60;79.70;;;;;;5022474;28;20026;-58
2023/01/30 00:36:33;;;;;;;26.58;15.02;;;0.50;79.60;;;;;;5020973;28;20045;-59
2023/01/30 00:38:59;;;;;;;28.95;15.35;;;0.50;79.60;;;;;;5018840;28;20492;-60
2023/01/30 00:47:04;;;;;;;29.15;15.43;;;0.50;79.70;;;;;;5023231;28;20029;-56
2023/01/30 00:47:07;;;;;;;26.60;14.80;;;0.40;79.70;;;;;;5027681;28;20072;-59
2023/01/30 00:49:35;;;;;;;27.65;14.73;;;0.40;79.80;;;;;;5025529;28;20029;-60
2023/01/30 00:52:01;;;;;;;30.50;15.27;;;0.40;79.70;;;;;;5018085;28;20471;-59
2023/01/30 00:54:26;;;;;;;31.77;16.77;;;0.40;79.70;;;;;;5029960;28;20040;-59
2023/01/30 00:56:52;;;;;;;32.33;16.45;;;0.40;79.80;;;;;;5033497;28;20056;-58
2023/01/30 00:59:17;;;;;;;31.23;16.08;;;0.30;79.80;;;;;;5028796;28;20072;-61
2023/01/30 01:01:43;;;;;;;30.98;15.85;;;0.40;79.90;;;;;;5032481;28;20042;-60
2023/01/30 01:04:09;;;;;;;31.77;16.35;;;0.40;79.90;;;;;;5035978;28;20103;-56
2023/01/30 01:06:38;;;;;;;28.50;15.52;;;0.30;79.90;;;;;;5037295;28;20061;-59
2023/01/30 01:09:05;;;;;;;32.75;16.98;;;0.30;79.90;;;;;;5032026;28;20025;-61
2023/01/30 01:11:30;;;;;;;34.80;17.20;;;0.30;79.90;;;;;;5027389;28;20036;-59
2023/01/30 01:13:59;;;;;;;29.90;16.60;;;0.40;80.00;;;;;;5032047;28;20164;-60
2023/01/30 01:16:26;;;;;;;31.63;16.63;;;0.40;79.90;;;;;;5028755;28;20037;-59
2023/01/30 01:18:52;;;;;;;32.03;16.83;;;0.30;79.80;;;;;;5029943;28;20040;-60
2023/01/30 01:21:18;;;;;;;30.40;16.10;;;0.30;79.80;;;;;;5025473;28;20072;-59
2023/01/30 01:23:47;;;;;;;34.35;17.70;;;0.40;79.90;;;;;;5023408;28;20159;-59
2023/01/30 01:26:13;;;;;;;30.30;15.70;;;0.30;79.90;;;;;;5025254;28;20049;-60
2023/01/30 01:28:38;;;;;;;32.00;16.98;;;0.30;79.90;;;;;;5022777;28;20040;-60
2023/01/30 01:31:12;;;;;;;32.55;17.33;;;0.30;80.80;;;;;;5023767;28;20033;-60
2023/01/30 01:33:38;;;;;;;32.25;17.10;;;0.30;79.90;;;;;;5024541;28;20071;-58
2023/01/30 01:36:04;;;;;;;32.53;16.90;;;0.30;79.90;;;;;;5028466;28;20122;-58
2023/01/30 01:38:29;;;;;;;31.50;16.52;;;0.30;79.90;;;;;;5028461;28;20435;-59
2023/01/30 01:41:01;;;;;;;31.63;17.10;;;0.30;79.90;;;;;;5029897;28;20044;-58
2023/01/30 01:43:35;;;;;;;32.15;17.67;;;0.30;79.90;;;;;;5021104;28;20037;-60
2023/01/30 01:46:25;;;;;;;31.50;16.92;;;0.30;79.90;;;;;;5029550;28;20045;-59
2023/01/30 01:48:55;;;;;;;33.95;17.08;;;0.30;79.80;;;;;;5029767;28;20034;-59
2023/01/30 01:51:37;;;;;;;28.77;16.00;;;0.30;79.70;;;;;;5030604;28;20045;-59
2023/01/30 01:54:06;;;;;;;29.98;16.02;;;0.30;79.60;;;;;;5023589;28;20416;-59
2023/01/30 01:56:34;;;;;;;31.77;17.45;;;0.30;79.60;;;;;;5027526;28;20512;-59
2023/01/30 01:59:13;;;;;;;32.40;17.08;;;0.30;79.50;;;;;;5024368;28;22197;-60
2023/01/30 02:01:38;;;;;;;32.65;16.85;;;0.30;79.60;;;;;;5025716;28;20405;-59
2023/01/30 02:04:08;;;;;;;33.13;17.17;;;0.20;79.50;;;;;;5032771;28;20037;-60
2023/01/30 02:06:36;;;;;;;33.65;17.02;;;0.20;79.60;;;;;;5030133;28;20033;-58
2023/01/30 02:09:06;;;;;;;29.55;16.73;;;0.30;79.70;;;;;;5031969;28;20079;-60
2023/01/30 02:11:51;;;;;;;35.08;18.13;;;0.20;80.50;;;;;;5027747;28;20028;-60
2023/01/30 02:14:18;;;;;;;34.05;18.13;;;0.20;79.60;;;;;;5020896;28;20304;-60
2023/01/30 02:16:45;;;;;;;35.97;17.63;;;0.20;79.70;;;;;;5024117;28;20037;-59
2023/01/30 02:19:37;;;;;;;35.13;17.83;;;0.20;79.70;;;;;;5024165;28;20159;-59
2023/01/30 02:22:40;;;;;;;36.13;18.15;;;0.20;79.70;;;;;;5026876;28;20044;-60
2023/01/30 02:25:17;;;;;;;33.35;16.75;;;0.20;79.70;;;;;;5022226;28;20053;-59
2023/01/30 02:28:05;;;;;;;33.35;17.60;;;0.10;79.70;;;;;;5025283;28;20037;-59
2023/01/30 02:31:09;;;;;;;32.97;17.38;;;0.10;79.50;;;;;;5024372;28;20038;-60
2023/01/30 02:33:52;;;;;;;30.83;16.95;;;0.00;79.10;;;;;;5025134;28;20045;-60
2023/01/30 02:36:33;;;;;;;32.75;16.83;;;-0.10;79.20;;;;;;5024435;28;20640;-56
2023/01/30 02:39:12;;;;;;;33.42;17.42;;;-0.20;79.40;;;;;;5024580;28;20044;-57
2023/01/30 02:41:47;;;;;;;32.15;16.42;;;-0.30;79.70;;;;;;5028930;28;20359;-57
2023/01/30 02:44:12;;;;;;;;;;;-0.30;79.90;;;;;;5028621;28;20040;-58
2023/01/30 02:46:49;;;;;;;28.92;15.45;;;-0.30;80.10;;;;;;5027667;28;19913;-57
2023/01/30 02:49:22;;;;;;;31.73;15.93;;;-0.40;80.10;;;;;;5029184;28;20041;-59
2023/01/30 02:51:50;;;;;;;33.33;16.67;;;-0.40;80.20;;;;;;5029026;28;20041;-58
2023/01/30 02:54:15;;;;;;;33.80;16.25;;;-0.40;80.40;;;;;;5028158;28;20489;-58
2023/01/30 02:56:46;;;;;;;30.48;15.73;;;-0.40;80.60;;;;;;5029358;28;20053;-61
2023/01/30 02:59:15;;;;;;;31.10;16.58;;;-0.40;80.70;;;;;;5028697;28;20033;-59
2023/01/30 03:02:18;;;;;;;30.95;16.75;;;-0.40;80.80;;;;;;5026257;28;20432;-59
2023/01/30 03:05:15;;;;;;;29.13;16.00;;;-0.40;80.90;;;;;;5025715;28;20033;-60
2023/01/30 03:08:02;;;;;;;33.53;16.42;;;-0.30;81.00;;;;;;5023825;28;20076;-59
2023/01/30 03:10:43;;;;;;;30.75;15.82;;;-0.30;80.90;;;;;;5027205;28;20037;-56
2023/01/30 03:13:37;;;;;;;31.98;16.48;;;-0.30;80.90;;;;;;5023797;28;20037;-59
2023/01/30 03:16:22;;;;;;;29.92;15.52;;;-0.30;81.10;;;;;;5024794;28;20520;-58
2023/01/30 03:18:48;;;;;;;31.05;15.98;;;-0.20;81.10;;;;;;5029494;28;20040;-58
2023/01/30 03:21:14;;;;;;;32.42;16.10;;;-0.20;81.10;;;;;;5025606;28;20068;-59
2023/01/30 03:23:40;;;;;;;31.00;16.48;;;-0.20;81.10;;;;;;5028027;28;20076;-59
2023/01/30 03:26:10;;;;;;;31.35;16.33;;;-0.20;81.00;;;;;;5023501;28;20041;-58
2023/01/30 03:28:36;;;;;;;31.27;15.35;;;-0.10;81.10;;;;;;5019128;28;20524;-55
2023/01/30 03:31:01;;;;;;;32.42;16.58;;;-0.10;81.10;;;;;;5022183;28;20045;-59
2023/01/30 03:33:27;;;;;;;33.95;16.50;;;-0.10;81.10;;;;;;5021624;28;20080;-56
2023/01/30 03:35:53;;;;;;;34.55;17.80;;;-0.10;81.10;;;;;;5023356;28;20037;-58
2023/01/30 03:38:18;;;;;;;32.80;16.42;;;-0.10;81.10;;;;;;5025059;28;20742;-60
2023/01/30 03:40:44;;;;;;;30.85;15.88;;;-0.10;81.10;;;;;;5025658;28;20037;-60
2023/01/30 03:43:09;;;;;;;29.77;16.55;;;-0.10;81.10;;;;;;5029760;28;20920;-60
2023/01/30 03:45:36;;;;;;;31.77;16.30;;;-0.10;81.10;;;;;;5028750;28;20041;-59
2023/01/30 03:48:02;;;;;;;30.67;15.95;;;-0.10;81.00;;;;;;5025041;28;20448;-60
2023/01/30 03:50:28;;;;;;;30.70;15.90;;;-0.10;81.00;;;;;;5026844;28;20041;-60
2023/01/30 03:52:53;;;;;;;31.45;16.48;;;-0.10;81.20;;;;;;5026502;28;20033;-57
2023/01/30 03:55:19;;;;;;;32.20;16.52;;;0.00;81.10;;;;;;5024212;28;20063;-58
2023/01/30 03:57:45;;;;;;;33.08;16.75;;;-0.10;81.10;;;;;;5030397;28;20065;-58
2023/01/30 04:00:11;;;;;;;32.22;15.82;;;0.00;81.10;;;;;;5032431;28;20056;-61
2023/01/30 04:02:37;;;;;;;30.98;16.27;;;0.00;81.10;;;;;;5028816;28;20029;-58
2023/01/30 04:05:03;;;;;;;30.00;15.63;;;0.00;81.10;;;;;;5033825;28;20509;-59
2023/01/30 04:07:29;;;;;;;29.50;15.65;;;0.00;81.10;;;;;;5030661;28;20037;-57
2023/01/30 04:09:55;;;;;;;30.80;15.93;;;0.00;81.00;;;;;;5027025;28;20378;-60
2023/01/30 04:12:20;;;;;;;28.30;15.82;;;0.00;81.00;;;;;;5021924;28;20031;-55
2023/01/30 04:14:46;;;;;;;30.30;16.30;;;0.00;80.90;;;;;;5025027;28;20508;-59
2023/01/30 04:17:11;;;;;;;30.20;16.08;;;0.00;80.90;;;;;;5028027;28;20049;-59
2023/01/30 04:19:37;;;;;;;30.92;15.73;;;0.00;80.80;;;;;;5032139;28;20040;-59
2023/01/30 04:22:03;;;;;;;31.15;15.80;;;0.00;80.80;;;;;;5029082;28;20037;-58
2023/01/30 04:24:28;;;;;;;31.75;16.15;;;0.00;80.80;;;;;;5031764;28;20453;-60
2023/01/30 04:26:54;;;;;;;29.45;15.00;;;0.00;80.80;;;;;;5025292;28;20048;-60
2023/01/30 04:29:19;;;;;;;29.40;16.38;;;-0.10;80.90;;;;;;5027831;28;20082;-61
2023/01/30 04:31:45;;;;;;;33.00;16.73;;;-0.10;81.00;;;;;;5021216;28;20411;-60
2023/01/30 04:34:10;;;;;;;32.33;16.35;;;-0.10;81.10;;;;;;5027097;28;20042;-59
2023/01/30 04:36:36;;;;;;;30.60;16.05;;;-0.10;81.10;;;;;;5029298;28;20033;-59
2023/01/30 04:39:02;;;;;;;32.33;16.75;;;-0.10;80.90;;;;;;5032930;28;20080;-61
2023/01/30 04:41:27;;;;;;;34.30;16.98;;;-0.10;80.80;;;;;;5028364;28;20032;-59
2023/01/30 04:43:53;;;;;;;31.67;16.63;;;-0.10;80.80;;;;;;5032373;28;20117;-59
2023/01/30 04:46:18;;;;;;;35.65;17.35;;;-0.10;80.80;;;;;;5025997;28;20052;-59
2023/01/30 04:48:44;;;;;;;35.53;18.27;;;-0.10;80.90;;;;;;5028307;28;20121;-58
2023/01/30 04:51:10;;;;;;;32.47;18.00;;;-0.20;80.90;;;;;;5027278;28;20033;-59
2023/01/30 04:53:35;;;;;;;33.80;17.58;;;-0.20;80.80;;;;;;5024681;28;20192;-59
2023/01/30 04:56:01;;;;;;;33.90;16.95;;;-0.20;80.90;;;;;;5025279;28;20623;-59
2023/01/30 04:58:27;;;;;;;33.08;17.67;;;-0.20;80.90;;;;;;5035599;28;20445;-59
2023/01/30 05:00:52;;;;;;;36.58;18.23;;;-0.20;81.00;;;;;;5022687;28;20159;-60
2023/01/30 05:03:18;;;;;;;31.95;17.55;;;-0.20;81.10;;;;;;5026451;28;20056;-60
2023/01/30 05:05:47;;;;;;;32.67;16.63;;;-0.20;81.30;;;;;;5032489;28;20037;-59
2023/01/30 05:08:13;;;;;;;34.05;17.95;;;-0.20;82.20;;;;;;5024430;28;20048;-59
2023/01/30 05:10:38;;;;;;;34.50;17.70;;;-0.20;81.40;;;;;;5021522;28;20063;-58
2023/01/30 05:13:05;;;;;;;34.55;17.80;;;-0.20;81.50;;;;;;5029063;28;20522;-59
2023/01/30 05:15:31;;;;;;;36.53;18.08;;;-0.20;81.60;;;;;;5026573;28;20114;-60
2023/01/30 05:17:56;;;;;;;35.28;17.80;;;-0.20;81.60;;;;;;5027750;28;20037;-58
2023/01/30 05:20:22;;;;;;;34.75;17.90;;;-0.20;81.90;;;;;;5025650;28;20063;-60
2023/01/30 05:22:48;;;;;;;32.50;17.80;;;-0.20;81.60;;;;;;5023382;28;20596;-56
2023/01/30 05:25:13;;;;;;;36.00;19.65;;;-0.10;81.60;;;;;;5026587;28;20046;-59
2023/01/30 05:27:39;;;;;;;37.38;19.77;;;-0.10;81.70;;;;;;5024478;28;20476;-60
2023/01/30 05:30:05;;;;;;;35.75;17.17;;;-0.10;81.60;;;;;;5023260;28;20094;-59
2023/01/30 05:32:31;;;;;;;34.58;17.55;;;0.00;81.60;;;;;;5025052;28;20409;-59
2023/01/30 05:34:56;;;;;;;32.45;17.73;;;0.00;81.50;;;;;;5023224;28;20034;-59
2023/01/30 05:37:23;;;;;;;33.38;18.58;;;0.00;81.40;;;;;;5022589;28;20344;-59
2023/01/30 05:39:48;;;;;;;32.00;17.05;;;0.00;81.50;;;;;;5016275;28;20496;-59
2023/01/30 05:42:14;;;;;;;31.83;17.35;;;0.10;81.40;;;;;;5027317;28;20055;-59
2023/01/30 05:44:40;;;;;;;31.63;16.45;;;0.10;81.40;;;;;;5035054;28;20033;-58
2023/01/30 05:47:05;;;;;;;29.65;15.65;;;0.10;81.40;;;;;;5035495;28;20057;-59
2023/01/30 05:49:31;;;;;;;28.35;15.55;;;0.10;81.40;;;;;;5034053;28;20504;-59
2023/01/30 05:51:56;;;;;;;31.20;17.17;;;0.10;81.30;;;;;;5036147;28;20152;-59
2023/01/30 05:54:22;;;;;;;28.85;15.77;;;0.10;81.30;;;;;;5034742;28;20076;-59
2023/01/30 05:56:49;;;;;;;28.88;14.82;;;0.20;81.40;;;;;;5031850;28;20484;-58
2023/01/30 05:59:15;;;;;;;26.52;15.10;;;0.10;81.30;;;;;;5032300;28;20045;-59
2023/01/30 06:01:41;;;;;;;29.77;16.65;;;0.10;81.30;;;;;;5031441;28;20055;-58
2023/01/30 06:04:06;;;;;;;28.50;14.70;;;0.10;81.30;;;;;;5034798;28;20446;-59
2023/01/30 06:06:32;;;;;;;29.38;15.80;;;0.10;81.30;;;;;;5035322;28;20035;-59
2023/01/30 06:08:58;;;;;;;29.90;14.95;;;0.20;81.30;;;;;;5035521;28;20112;-60
2023/01/30 06:11:24;;;;;;;32.15;17.05;;;0.10;81.20;;;;;;5031806;28;20040;-58
2023/01/30 06:13:50;;;;;;;28.63;14.93;;;0.10;81.20;;;;;;5031033;28;20485;-58
2023/01/30 06:16:16;;;;;;;29.08;15.48;;;0.10;81.40;;;;;;5036013;28;20049;-59
2023/01/30 06:18:42;;;;;;;29.02;15.20;;;0.10;81.30;;;;;;5032712;28;20155;-60
2023/01/30 06:21:08;;;;;;;27.25;15.32;;;0.10;81.40;;;;;;5034565;28;20513;-60
2023/01/30 06:23:34;;;;;;;25.88;14.77;;;0.10;81.40;;;;;;5035779;28;20025;-58
2023/01/30 06:26:00;;;;;;;28.15;14.32;;;0.20;81.50;;;;;;5033356;28;20067;-58
2023/01/30 06:28:26;;;;;;;25.67;14.25;;;0.10;81.50;;;;;;5029203;28;20104;-60
2023/01/30 06:30:53;;;;;;;24.98;14.25;;;0.20;81.70;;;;;;5031579;28;20045;-60
2023/01/30 06:33:18;;;;;;;25.90;14.50;;;0.20;81.60;;;;;;5035656;28;20151;-60
2023/01/30 06:35:47;;;;;;;27.95;15.50;;;0.20;81.70;;;;;;5030446;28;20125;-59
2023/01/30 06:38:13;;;;;;;28.35;15.40;;;0.20;81.70;;;;;;5035678;28;20080;-58
2023/01/30 06:40:40;;;;;;;27.52;14.75;;;0.20;81.80;;;;;;5033448;28;20037;-56
2023/01/30 06:43:06;;;;;;;26.63;14.55;;;0.20;81.80;;;;;;5033060;28;20049;-59
2023/01/30 06:45:32;;;;;;;26.17;14.13;;;0.20;81.80;;;;;;5032209;28;20126;-58
2023/01/30 06:47:57;;;;;;;23.77;13.20;;;0.30;81.90;;;;;;5031033;28;20084;-60
2023/01/30 06:50:25;;;;;;;27.00;14.23;;;0.30;82.00;;;;;;5031005;28;20061;-60
2023/01/30 06:52:53;;;;;;;24.50;13.38;;;0.20;81.90;;;;;;5034729;28;20034;-59
2023/01/30 06:55:22;;;;;;;25.48;14.23;;;0.30;82.00;;;;;;5032755;28;20103;-58
2023/01/30 06:57:48;;;;;;;25.63;14.10;;;0.30;82.00;;;;;;5031859;28;20038;-59
2023/01/30 07:00:18;;;;;;;25.52;14.23;;;0.30;81.90;;;;;;5034311;28;20431;-59
2023/01/30 07:02:45;;;;;;;24.05;13.63;;;0.30;81.90;;;;;;5030516;28;20544;-59
2023/01/30 07:05:11;;;;;;;26.30;13.75;;;0.30;81.80;;;;;;5031058;28;20122;-58
2023/01/30 07:07:37;;;;;;;22.83;13.25;;;0.30;81.80;;;;;;5035334;28;20061;-60
2023/01/30 07:10:05;;;;;;;24.52;14.00;;;0.40;81.80;;;;;;5033954;28;20501;-60
2023/01/30 07:12:30;;;;;;;22.13;13.00;;;0.40;81.80;;;;;;5024374;28;20037;-60
2023/01/30 07:14:56;;;;;;;24.42;13.80;;;0.40;81.70;;;;;;5032941;28;20195;-58
2023/01/30 07:17:22;;;;;;;22.75;13.35;;;0.40;81.70;;;;;;5030266;28;20052;-60
2023/01/30 07:19:48;;;;;;;24.17;13.25;;;0.40;81.60;;;;;;5032717;28;20033;-59
2023/01/30 07:22:14;;;;;;;24.13;13.10;;;0.40;81.60;;;;;;5029207;28;20048;-59
2023/01/30 07:24:41;;;;;;;22.23;13.07;;;0.40;81.60;;;;;;5032755;28;20079;-60
2023/01/30 07:27:08;;;;;;;25.55;13.82;;;0.40;81.60;;;;;;5028680;28;20200;-58
2023/01/30 07:29:35;;;;;;;23.38;13.60;;;0.40;81.60;;;;;;5034194;28;20041;-58
2023/01/30 07:32:02;;;;;;;26.45;13.75;;;0.40;81.60;;;;;;5028600;28;20530;-58
2023/01/30 07:34:27;;;;;;;21.90;12.52;;;0.40;81.60;;;;;;5034343;28;20029;-60
2023/01/30 07:36:53;;;;;;;24.20;13.57;;;0.50;81.60;;;;;;5032389;28;20033;-59
2023/01/30 07:39:19;;;;;;;22.42;12.82;;;0.50;81.50;;;;;;5033967;28;20041;-61
2023/01/30 07:41:44;;;;;;;21.98;12.43;;;0.50;81.40;;;;;;5033970;28;20120;-59
2023/01/30 07:44:11;;;;;;;24.00;12.77;;;0.50;81.40;;;;;;5030081;28;20060;-59
2023/01/30 07:46:37;;;;;;;19.65;10.95;;;0.50;81.30;;;;;;5033012;28;20037;-60
2023/01/30 07:49:04;;;;;;;20.13;11.85;;;0.50;81.20;;;;;;5030504;28;20029;-60
2023/01/30 07:51:29;;;;;;;19.58;11.40;;;0.50;81.10;;;;;;5033526;28;20126;-59
2023/01/30 07:53:55;;;;;;;18.85;11.65;;;0.50;81.00;;;;;;5031777;28;20105;-59
2023/01/30 07:56:20;;;;;;;20.42;11.98;;;0.40;80.90;;;;;;5035113;28;20026;-59
2023/01/30 07:58:46;;;;;;;20.10;11.68;;;0.40;81.00;;;;;;5027715;28;20124;-60
2023/01/30 08:01:12;;;;;;;19.38;12.00;;;0.40;81.00;;;;;;5030838;28;20513;-59
2023/01/30 08:03:38;;;;;;;20.00;11.82;;;0.40;81.20;;;;;;5033225;28;20032;-56
2023/01/30 08:06:03;;;;;;;20.25;11.32;;;0.50;81.30;;;;;;5032678;28;20519;-58
2023/01/30 08:08:29;;;;;;;20.45;11.88;;;0.40;81.20;;;;;;5028681;28;20378;-58
2023/01/30 08:10:54;;;;;;;19.42;11.52;;;0.50;81.40;;;;;;5030205;28;20033;-60
2023/01/30 08:13:20;;;;;;;21.00;11.88;;;0.50;81.30;;;;;;5030249;28;20095;-59
2023/01/30 08:15:45;;;;;;;20.60;11.63;;;0.50;81.30;;;;;;5032761;28;20086;-58
2023/01/30 08:18:11;;;;;;;20.17;11.23;;;0.60;81.40;;;;;;5030341;28;20602;-58
2023/01/30 08:20:37;;;;;;;19.08;11.50;;;0.60;81.40;;;;;;5032749;28;20571;-57
2023/01/30 08:23:03;;;;;;;20.40;11.70;;;0.60;81.30;;;;;;5032438;28;20306;-58
2023/01/30 08:25:28;;;;;;;18.70;10.95;;;0.70;81.40;;;;;;5034235;28;20064;-59
2023/01/30 08:27:54;;;;;;;16.33;10.07;;;0.70;81.30;;;;;;5031497;28;20071;-60
2023/01/30 08:30:21;;;;;;;17.73;10.73;;;0.80;81.30;;;;;;5032609;28;20057;-59
2023/01/30 08:32:47;;;;;;;18.70;11.25;;;0.90;81.30;;;;;;5031173;28;20459;-60
2023/01/30 08:35:13;;;;;;;18.85;11.35;;;0.90;81.30;;;;;;5035591;28;20037;-59
2023/01/30 08:37:40;;;;;;;18.10;10.93;;;1.00;81.40;;;;;;5029486;28;20041;-60
2023/01/30 08:40:07;;;;;;;18.20;10.18;;;1.00;81.40;;;;;;5028212;28;20432;-58
2023/01/30 08:42:32;;;;;;;16.75;10.25;;;1.10;81.30;;;;;;5029443;28;20037;-61
2023/01/30 08:44:58;;;;;;;17.35;10.48;;;1.10;81.20;;;;;;5028767;28;20044;-60
2023/01/30 08:47:23;;;;;;;18.05;10.55;;;1.20;81.10;;;;;;5031825;28;20083;-59
2023/01/30 08:49:50;;;;;;;19.48;10.68;;;1.30;80.90;;;;;;5025394;28;20047;-60
2023/01/30 08:52:16;;;;;;;17.70;10.00;;;1.30;80.60;;;;;;5029338;28;20121;-61
2023/01/30 08:54:41;;;;;;;16.95;10.27;;;1.30;80.40;;;;;;5030998;28;20128;-58
2023/01/30 08:57:07;;;;;;;17.13;10.48;;;1.40;80.40;;;;;;5034137;28;20516;-59
2023/01/30 08:59:32;;;;;;;17.40;10.40;;;1.40;80.20;;;;;;5027771;28;20029;-61
2023/01/30 09:01:58;;;;;;;16.58;10.07;;;1.50;80.10;;;;;;5027147;28;20041;-59
2023/01/30 09:04:25;;;;;;;17.33;10.25;;;1.50;79.90;;;;;;5030358;28;20044;-59
2023/01/30 09:06:51;;;;;;;16.83;10.30;;;1.60;79.90;;;;;;5030438;28;20106;-60
2023/01/30 09:09:16;;;;;;;16.13;9.57;;;1.60;79.90;;;;;;5033954;28;20379;-60
2023/01/30 09:11:42;;;;;;;17.50;9.65;;;1.70;79.90;;;;;;5028956;28;20048;-58
2023/01/30 09:14:07;;;;;;;35.88;17.17;;;1.70;79.70;;;;;;5028139;28;20087;-61
2023/01/30 09:16:33;;;;;;;20.00;11.90;;;1.70;79.50;;;;;;5037904;28;20037;-58
2023/01/30 09:18:59;;;;;;;20.63;11.82;;;1.70;79.20;;;;;;5033140;28;20053;-60
2023/01/30 09:21:24;;;;;;;18.38;11.43;;;1.70;78.60;;;;;;5030741;28;20540;-56
2023/01/30 09:23:50;;;;;;;16.33;10.02;;;1.70;78.60;;;;;;5034805;28;20463;-60
2023/01/30 09:26:15;;;;;;;17.58;10.60;;;1.80;78.90;;;;;;5035333;28;20160;-59
2023/01/30 09:28:41;;;;;;;15.45;9.75;;;1.80;78.80;;;;;;5033319;28;20095;-61
2023/01/30 09:31:07;;;;;;;15.95;9.75;;;1.80;78.90;;;;;;5032895;28;20037;-59
2023/01/30 09:33:32;;;;;;;16.77;10.10;;;1.90;79.00;;;;;;5037573;28;20706;-60
2023/01/30 09:35:58;;;;;;;16.40;10.00;;;2.00;79.00;;;;;;5035128;28;20021;-59
2023/01/30 09:38:23;;;;;;;16.25;9.85;;;2.00;79.20;;;;;;5035795;28;20058;-61
2023/01/30 09:40:58;;;;;;;20.85;11.77;;;2.10;79.20;;;;;;5029652;28;20060;-58
2023/01/30 09:43:29;;;;;;;;;;;2.20;78.30;;;;;;5032835;28;20047;-60
2023/01/30 09:46:01;;;;;;;15.90;9.55;;;2.30;78.10;;;;;;5031975;28;19998;-58
2023/01/30 09:48:33;;;;;;;17.45;10.68;;;2.30;78.90;;;;;;5032743;28;20129;-59
2023/01/30 09:51:02;;;;;;;15.13;9.77;;;2.40;78.30;;;;;;5033470;28;20397;-58
2023/01/30 09:54:03;;;;;;;16.65;10.13;;;2.40;78.30;;;;;;5024142;28;20453;-59
2023/01/30 09:56:29;;;;;;;16.55;10.18;;;2.50;77.80;;;;;;5031336;28;20033;-60
2023/01/30 09:58:57;;;;;;;15.65;9.45;;;2.60;78.10;;;;;;5038871;28;20044;-60
2023/01/30 10:02:01;;;;;;;16.73;9.98;;;2.60;78.10;;;;;;5036265;28;20744;-58
2023/01/30 10:04:33;;;;;;;15.18;10.00;;;2.70;77.60;;;;;;5030810;28;20548;-60
2023/01/30 10:07:24;;;;;;;15.95;9.63;;;2.70;77.80;;;;;;5034222;28;20073;-56
2023/01/30 10:10:19;;;;;;;14.73;9.07;;;2.80;77.70;;;;;;5033696;28;20037;-55
2023/01/30 10:13:12;;;;;;;16.15;10.32;;;2.90;77.20;;;;;;5024818;28;20052;-60
2023/01/30 10:15:53;;;;;;;16.17;9.68;;;3.00;77.40;;;;;;5031386;28;20052;-60
2023/01/30 10:18:37;;;;;;;17.67;10.48;;;3.00;76.70;;;;;;5036007;28;20041;-59
2023/01/30 10:21:19;;;;;;;15.23;10.10;;;3.00;76.20;;;;;;5035388;28;20042;-59
2023/01/30 10:24:03;;;;;;;15.48;9.60;;;3.00;76.10;;;;;;5034614;28;20044;-58
2023/01/30 10:26:30;;;;;;;20.13;9.95;;;3.00;76.40;;;;;;5034976;28;20043;-59
2023/01/30 10:29:07;;;;;;;14.63;8.85;;;3.10;76.70;;;;;;5028292;28;20463;-59
2023/01/30 10:31:50;;;;;;;13.75;8.80;;;3.10;76.70;;;;;;5032836;28;20462;-58
2023/01/30 10:34:24;;;;;;;14.45;8.82;;;3.10;76.60;;;;;;5034942;28;20033;-58
2023/01/30 10:37:12;;;;;;;16.00;9.43;;;3.20;76.70;;;;;;5030600;28;20055;-59
2023/01/30 10:40:01;;;;;;;15.05;9.07;;;3.20;76.40;;;;;;5035487;28;20033;-58
2023/01/30 10:42:46;;;;;;;15.40;9.52;;;3.20;76.80;;;;;;5034809;28;20520;-60
2023/01/30 10:45:19;;;;;;;15.88;9.18;;;3.30;76.70;;;;;;5033690;28;20049;-59
2023/01/30 10:47:48;;;;;;;14.48;8.70;;;3.30;76.90;;;;;;5032448;28;20092;-59
2023/01/30 10:50:19;;;;;;;14.30;8.88;;;3.40;76.90;;;;;;5033907;28;20041;-60
2023/01/30 10:52:50;;;;;;;14.55;8.50;;;3.40;76.90;;;;;;5029210;28;20036;-60
2023/01/30 10:55:26;;;;;;;13.65;8.63;;;3.50;76.90;;;;;;5034286;28;20516;-61
2023/01/30 10:58:22;;;;;;;14.10;8.20;;;3.60;76.60;;;;;;5033153;28;20041;-59
2023/01/30 11:01:00;;;;;;;12.93;8.68;;;3.60;76.60;;;;;;5033416;28;20037;-59
2023/01/30 11:03:26;;;;;;;15.95;9.10;;;3.70;76.70;;;;;;5035177;28;20033;-60
2023/01/30 11:05:55;;;;;;;13.93;8.98;;;3.80;76.90;;;;;;5037776;28;20094;-57
2023/01/30 11:08:38;;;;;;;13.90;8.73;;;3.90;76.90;;;;;;5037468;28;20040;-60
2023/01/30 11:11:41;;;;;;;13.98;8.85;;;4.00;76.90;;;;;;5030253;28;20412;-61
2023/01/30 11:14:10;;;;;;;14.00;8.82;;;4.10;76.10;;;;;;5038135;28;20404;-59
2023/01/30 11:16:55;;;;;;;13.27;8.38;;;4.10;76.00;;;;;;5036486;28;20504;-59
2023/01/30 11:19:31;;;;;;;14.63;9.00;;;4.20;75.50;;;;;;5036313;28;20918;-60
2023/01/30 11:22:03;;;;;;;12.77;8.32;;;4.20;75.00;;;;;;5037546;28;20044;-60
2023/01/30 11:24:41;;;;;;;14.07;8.57;;;4.20;75.20;;;;;;5036261;28;20029;-61
2023/01/30 11:27:26;;;;;;;16.27;9.02;;;4.20;75.30;;;;;;5037269;28;20427;-61
2023/01/30 11:30:18;;;;;;;12.43;8.15;;;4.20;74.60;;;;;;5037226;28;20025;-59
2023/01/30 11:32:46;;;;;;;12.57;7.90;;;4.20;75.00;;;;;;5036179;28;20033;-61
2023/01/30 11:35:26;;;;;;;13.15;8.43;;;4.20;75.40;;;;;;5037847;28;20112;-61
2023/01/30 11:37:52;;;;;;;13.70;8.40;;;4.20;75.40;;;;;;5035547;28;20041;-61
2023/01/30 11:40:19;;;;;;;13.55;8.27;;;4.10;75.50;;;;;;5037237;28;20404;-62
2023/01/30 11:42:48;;;;;;;17.20;8.50;;;4.10;75.60;;;;;;5037559;28;20044;-60
2023/01/30 11:45:15;;;;;;;14.32;9.82;;;4.10;75.40;;;;;;5036845;28;20057;-61
2023/01/30 11:47:56;;;;;;;16.15;9.52;;;4.10;75.30;;;;;;5037311;28;20091;-59
2023/01/30 11:50:28;;;;;;;15.57;9.75;;;4.10;75.20;;;;;;5036232;28;20038;-61
2023/01/30 11:52:54;;;;;;;14.90;9.63;;;4.00;75.50;;;;;;5036315;28;20119;-61
2023/01/30 11:55:20;;;;;;;15.88;9.98;;;4.00;75.60;;;;;;5036289;28;20037;-62
2023/01/30 11:57:49;;;;;;;13.98;9.15;;;4.00;75.60;;;;;;5036571;28;20048;-59
2023/01/30 12:00:43;;;;;;;16.23;9.68;;;4.00;75.80;;;;;;5032953;28;21792;-62
2023/01/30 12:03:11;;;;;;;15.77;9.98;;;4.00;75.80;;;;;;5031899;28;20428;-60
2023/01/30 12:05:41;;;;;;;17.27;10.13;;;4.00;75.90;;;;;;5029515;28;20701;-61
2023/01/30 12:08:15;;;;;;;19.20;10.13;;;4.00;75.90;;;;;;5031262;28;20040;-61
2023/01/30 12:10:45;;;;;;;15.25;10.13;;;4.00;75.60;;;;;;5029641;28;20510;-59
2023/01/30 12:13:29;;;;;;;17.52;10.73;;;4.00;75.50;;;;;;5029509;28;20037;-61
2023/01/30 12:16:13;;;;;;;17.67;10.20;;;4.00;76.40;;;;;;5033489;28;20065;-61
2023/01/30 12:19:00;;;;;;;15.52;9.45;;;4.00;75.30;;;;;;5034405;28;20041;-60
2023/01/30 12:21:44;;;;;;;17.13;10.38;;;4.00;75.60;;;;;;5031334;28;20046;-60
2023/01/30 12:24:18;;;;;;;15.32;10.35;;;3.90;75.50;;;;;;5031500;28;20090;-59
2023/01/30 12:26:52;;;;;;;15.32;9.90;;;4.00;76.00;;;;;;5031621;28;20546;-61
2023/01/30 12:29:28;;;;;;;16.20;10.27;;;3.90;75.70;;;;;;5032129;28;20340;-61
2023/01/30 12:32:16;;;;;;;20.23;11.13;;;3.90;75.60;;;;;;5033935;28;20048;-61
2023/01/30 12:34:44;;;;;;;16.75;9.80;;;3.90;75.70;;;;;;5033621;28;20033;-62
2023/01/30 12:37:43;;;;;;;15.93;10.27;;;3.90;76.00;;;;;;5034462;28;20120;-61
2023/01/30 12:40:24;;;;;;;15.15;9.25;;;3.90;75.90;;;;;;5031502;28;20030;-61
2023/01/30 12:43:01;;;;;;;15.73;9.57;;;3.90;76.00;;;;;;5030455;28;20041;-62
2023/01/30 12:45:31;;;;;;;16.13;9.98;;;3.90;76.00;;;;;;5033873;28;20582;-62
2023/01/30 12:47:56;;;;;;;16.83;11.07;;;3.90;76.20;;;;;;5029153;28;20591;-62
2023/01/30 12:50:36;;;;;;;16.20;10.02;;;4.00;76.20;;;;;;5034100;28;20140;-62
2023/01/30 12:53:44;;;;;;;15.15;9.43;;;4.00;76.40;;;;;;5036661;28;20467;-62
2023/01/30 12:56:34;;;;;;;15.35;9.45;;;4.00;76.30;;;;;;5034070;28;20035;-61